sensor_id;sensor_type;location;lat;lon;timestamp;temperature;humidity
15926;DHT22;8062;53.882;10.642;2023-11-21T00:00:25;6.80;99.90
15926;DHT22;8062;53.882;10.642;2023-11-21T00:01:45;6.80;99.90
15926;DHT22;8062;53.882;10.642;2023-11-21T00:03:05;6.70;99.90
15926;DHT22;8062;53.882;10.642;2023-11-21T00:04:26;6.70;99.90
15926;DHT22;8062;53.882;10.642;2023-11-21T00:05:47;6.70;99.90
15926;DHT22;8062;53.882;10.642;2023-11-21T00:07:07;6.70;99.90
15926;DHT22;8062;53.882;10.642;2023-11-21T00:08:26;6.70;99.90
15926;DHT22;8062;53.882;10.642;2023-11-21T00:09:47;6.70;99.90
15926;DHT22;8062;53.882;10.642;2023-11-21T00:11:06;6.70;99.90
15926;DHT22;8062;53.882;10.642;2023-11-21T00:12:26;6.70;99.90
15926;DHT22;8062;53.882;10.642;2023-11-21T00:13:47;6.70;99.90
15926;DHT22;8062;53.882;10.642;2023-11-21T00:15:07;6.70;99.90
15926;DHT22;8062;53.882;10.642;2023-11-21T00:16:33;6.70;99.90
15926;DHT22;8062;53.882;10.642;2023-11-21T00:17:53;6.60;99.90
15926;DHT22;8062;53.882;10.642;2023-11-21T00:19:12;6.70;99.90
15926;DHT22;8062;53.882;10.642;2023-11-21T00:20:32;6.60;99.90
15926;DHT22;8062;53.882;10.642;2023-11-21T00:21:52;6.60;99.90
15926;DHT22;8062;53.882;10.642;2023-11-21T00:23:11;6.60;99.90
15926;DHT22;8062;53.882;10.642;2023-11-21T00:24:31;6.60;99.90
15926;DHT22;8062;53.882;10.642;2023-11-21T00:25:51;6.60;99.90
15926;DHT22;8062;53.882;10.642;2023-11-21T00:27:10;6.60;99.90
15926;DHT22;8062;53.882;10.642;2023-11-21T00:28:30;6.60;99.90
15926;DHT22;8062;53.882;10.642;2023-11-21T00:29:50;6.60;99.90
15926;DHT22;8062;53.882;10.642;2023-11-21T00:31:10;6.60;99.90
15926;DHT22;8062;53.882;10.642;2023-11-21T00:32:30;6.60;99.90
15926;DHT22;8062;53.882;10.642;2023-11-21T00:33:51;6.60;99.90
15926;DHT22;8062;53.882;10.642;2023-11-21T00:35:10;6.60;99.90
15926;DHT22;8062;53.882;10.642;2023-11-21T00:36:30;6.50;99.90
15926;DHT22;8062;53.882;10.642;2023-11-21T00:37:49;6.50;99.90
15926;DHT22;8062;53.882;10.642;2023-11-21T00:39:09;6.50;99.90
15926;DHT22;8062;53.882;10.642;2023-11-21T00:40:29;6.50;99.90
15926;DHT22;8062;53.882;10.642;2023-11-21T00:41:48;6.40;99.90
15926;DHT22;8062;53.882;10.642;2023-11-21T00:43:08;6.40;99.90
15926;DHT22;8062;53.882;10.642;2023-11-21T00:44:27;6.40;99.90
15926;DHT22;8062;53.882;10.642;2023-11-21T00:45:47;6.50;99.90
15926;DHT22;8062;53.882;10.642;2023-11-21T00:47:08;6.50;99.90
15926;DHT22;8062;53.882;10.642;2023-11-21T00:48:28;6.50;99.90
15926;DHT22;8062;53.882;10.642;2023-11-21T00:49:47;6.40;99.90
15926;DHT22;8062;53.882;10.642;2023-11-21T00:51:08;6.40;99.90
15926;DHT22;8062;53.882;10.642;2023-11-21T00:52:28;6.40;99.90
15926;DHT22;8062;53.882;10.642;2023-11-21T00:53:48;6.40;99.90
15926;DHT22;8062;53.882;10.642;2023-11-21T00:55:07;6.40;99.90
15926;DHT22;8062;53.882;10.642;2023-11-21T00:56:27;6.40;99.90
15926;DHT22;8062;53.882;10.642;2023-11-21T00:57:47;6.40;99.90
15926;DHT22;8062;53.882;10.642;2023-11-21T00:59:07;6.50;99.90
15926;DHT22;8062;53.882;10.642;2023-11-21T01:00:26;6.40;99.90
15926;DHT22;8062;53.882;10.642;2023-11-21T01:01:46;6.50;99.90
15926;DHT22;8062;53.882;10.642;2023-11-21T01:03:05;6.50;99.90
15926;DHT22;8062;53.882;10.642;2023-11-21T01:04:27;6.50;99.90
15926;DHT22;8062;53.882;10.642;2023-11-21T01:05:47;6.50;99.90
15926;DHT22;8062;53.882;10.642;2023-11-21T01:07:09;6.40;99.90
15926;DHT22;8062;53.882;10.642;2023-11-21T01:08:29;6.40;99.90
15926;DHT22;8062;53.882;10.642;2023-11-21T01:09:48;6.50;99.90
15926;DHT22;8062;53.882;10.642;2023-11-21T01:11:08;6.40;99.90
15926;DHT22;8062;53.882;10.642;2023-11-21T01:12:27;6.40;99.90
15926;DHT22;8062;53.882;10.642;2023-11-21T01:13:48;6.40;99.90
15926;DHT22;8062;53.882;10.642;2023-11-21T01:15:08;6.40;99.90
15926;DHT22;8062;53.882;10.642;2023-11-21T01:16:27;6.40;99.90
15926;DHT22;8062;53.882;10.642;2023-11-21T01:17:47;6.40;99.90
15926;DHT22;8062;53.882;10.642;2023-11-21T01:19:07;6.40;99.90
15926;DHT22;8062;53.882;10.642;2023-11-21T01:20:26;6.40;99.90
15926;DHT22;8062;53.882;10.642;2023-11-21T01:21:46;6.50;99.90
15926;DHT22;8062;53.882;10.642;2023-11-21T01:23:06;6.40;99.90
15926;DHT22;8062;53.882;10.642;2023-11-21T01:24:25;6.40;99.90
15926;DHT22;8062;53.882;10.642;2023-11-21T01:25:45;6.40;99.90
15926;DHT22;8062;53.882;10.642;2023-11-21T01:27:04;6.40;99.90
15926;DHT22;8062;53.882;10.642;2023-11-21T01:28:24;6.40;99.90
15926;DHT22;8062;53.882;10.642;2023-11-21T01:29:44;6.40;99.90
15926;DHT22;8062;53.882;10.642;2023-11-21T01:31:04;6.30;99.90
15926;DHT22;8062;53.882;10.642;2023-11-21T01:32:23;6.40;99.90
15926;DHT22;8062;53.882;10.642;2023-11-21T01:33:43;6.30;99.90
15926;DHT22;8062;53.882;10.642;2023-11-21T01:35:03;6.30;99.90
15926;DHT22;8062;53.882;10.642;2023-11-21T01:36:30;6.30;99.90
15926;DHT22;8062;53.882;10.642;2023-11-21T01:37:51;6.20;99.90
15926;DHT22;8062;53.882;10.642;2023-11-21T01:39:11;6.30;99.90
15926;DHT22;8062;53.882;10.642;2023-11-21T01:40:35;6.20;99.90
15926;DHT22;8062;53.882;10.642;2023-11-21T01:41:54;6.30;99.90
15926;DHT22;8062;53.882;10.642;2023-11-21T01:43:14;6.20;99.90
15926;DHT22;8062;53.882;10.642;2023-11-21T01:44:34;6.20;99.90
15926;DHT22;8062;53.882;10.642;2023-11-21T01:45:57;6.20;99.90
15926;DHT22;8062;53.882;10.642;2023-11-21T01:47:17;6.20;99.90
15926;DHT22;8062;53.882;10.642;2023-11-21T01:48:37;6.20;99.90
15926;DHT22;8062;53.882;10.642;2023-11-21T01:49:58;6.30;99.90
15926;DHT22;8062;53.882;10.642;2023-11-21T01:51:17;6.30;99.90
15926;DHT22;8062;53.882;10.642;2023-11-21T01:52:38;6.30;99.90
15926;DHT22;8062;53.882;10.642;2023-11-21T01:53:59;6.30;99.90
15926;DHT22;8062;53.882;10.642;2023-11-21T01:55:19;6.20;99.90
15926;DHT22;8062;53.882;10.642;2023-11-21T01:56:38;6.20;99.90
15926;DHT22;8062;53.882;10.642;2023-11-21T01:57:58;6.20;99.90
15926;DHT22;8062;53.882;10.642;2023-11-21T01:59:21;6.20;99.90
15926;DHT22;8062;53.882;10.642;2023-11-21T02:00:42;6.20;99.90
15926;DHT22;8062;53.882;10.642;2023-11-21T02:02:04;6.20;99.90
15926;DHT22;8062;53.882;10.642;2023-11-21T02:03:24;6.10;99.90
15926;DHT22;8062;53.882;10.642;2023-11-21T02:04:45;6.10;99.90
15926;DHT22;8062;53.882;10.642;2023-11-21T02:06:05;6.10;99.90
15926;DHT22;8062;53.882;10.642;2023-11-21T02:07:25;6.10;99.90
15926;DHT22;8062;53.882;10.642;2023-11-21T02:08:44;6.20;99.90
15926;DHT22;8062;53.882;10.642;2023-11-21T02:10:08;6.20;99.90
15926;DHT22;8062;53.882;10.642;2023-11-21T02:11:28;6.20;99.90
15926;DHT22;8062;53.882;10.642;2023-11-21T02:12:48;6.10;99.90
15926;DHT22;8062;53.882;10.642;2023-11-21T02:14:09;6.10;99.90
15926;DHT22;8062;53.882;10.642;2023-11-21T02:15:29;6.10;99.90
15926;DHT22;8062;53.882;10.642;2023-11-21T02:16:50;6.10;99.90
15926;DHT22;8062;53.882;10.642;2023-11-21T02:18:10;6.10;99.90
15926;DHT22;8062;53.882;10.642;2023-11-21T02:19:31;6.10;99.90
15926;DHT22;8062;53.882;10.642;2023-11-21T02:20:51;6.10;99.90
15926;DHT22;8062;53.882;10.642;2023-11-21T02:22:12;6.10;99.90
15926;DHT22;8062;53.882;10.642;2023-11-21T02:23:31;6.10;99.90
15926;DHT22;8062;53.882;10.642;2023-11-21T02:24:51;6.10;99.90
15926;DHT22;8062;53.882;10.642;2023-11-21T02:26:10;6.10;99.90
15926;DHT22;8062;53.882;10.642;2023-11-21T02:27:30;6.10;99.90
15926;DHT22;8062;53.882;10.642;2023-11-21T02:28:50;6.10;99.90
15926;DHT22;8062;53.882;10.642;2023-11-21T02:30:12;6.10;99.90
15926;DHT22;8062;53.882;10.642;2023-11-21T02:31:33;6.10;99.90
15926;DHT22;8062;53.882;10.642;2023-11-21T02:32:53;6.10;99.90
15926;DHT22;8062;53.882;10.642;2023-11-21T02:34:13;6.10;99.90
15926;DHT22;8062;53.882;10.642;2023-11-21T02:35:32;6.10;99.90
15926;DHT22;8062;53.882;10.642;2023-11-21T02:36:52;6.00;99.90
15926;DHT22;8062;53.882;10.642;2023-11-21T02:38:11;6.10;99.90
15926;DHT22;8062;53.882;10.642;2023-11-21T02:39:31;6.10;99.90
15926;DHT22;8062;53.882;10.642;2023-11-21T02:40:51;6.00;99.90
15926;DHT22;8062;53.882;10.642;2023-11-21T02:42:10;6.00;99.90
15926;DHT22;8062;53.882;10.642;2023-11-21T02:43:30;6.00;99.90
15926;DHT22;8062;53.882;10.642;2023-11-21T02:44:50;6.00;99.90
15926;DHT22;8062;53.882;10.642;2023-11-21T02:46:09;6.00;99.90
15926;DHT22;8062;53.882;10.642;2023-11-21T02:47:29;6.00;99.90
15926;DHT22;8062;53.882;10.642;2023-11-21T02:48:49;6.00;99.90
15926;DHT22;8062;53.882;10.642;2023-11-21T02:50:11;6.10;99.90
15926;DHT22;8062;53.882;10.642;2023-11-21T02:51:30;6.10;99.90
15926;DHT22;8062;53.882;10.642;2023-11-21T02:52:50;6.00;99.90
15926;DHT22;8062;53.882;10.642;2023-11-21T02:54:11;6.10;99.90
15926;DHT22;8062;53.882;10.642;2023-11-21T02:55:30;6.00;99.90
15926;DHT22;8062;53.882;10.642;2023-11-21T02:56:54;6.00;99.90
15926;DHT22;8062;53.882;10.642;2023-11-21T02:58:13;5.90;99.90
15926;DHT22;8062;53.882;10.642;2023-11-21T02:59:33;6.00;99.90
15926;DHT22;8062;53.882;10.642;2023-11-21T03:00:54;6.10;99.90
15926;DHT22;8062;53.882;10.642;2023-11-21T03:02:14;6.00;99.90
15926;DHT22;8062;53.882;10.642;2023-11-21T03:03:35;6.10;99.90
15926;DHT22;8062;53.882;10.642;2023-11-21T03:04:56;6.10;99.90
15926;DHT22;8062;53.882;10.642;2023-11-21T03:06:16;6.10;99.90
15926;DHT22;8062;53.882;10.642;2023-11-21T03:07:37;6.10;99.90
15926;DHT22;8062;53.882;10.642;2023-11-21T03:08:56;6.10;99.90
15926;DHT22;8062;53.882;10.642;2023-11-21T03:10:16;6.10;99.90
15926;DHT22;8062;53.882;10.642;2023-11-21T03:11:36;6.10;99.90
15926;DHT22;8062;53.882;10.642;2023-11-21T03:12:55;6.10;99.90
15926;DHT22;8062;53.882;10.642;2023-11-21T03:14:16;6.10;99.90
15926;DHT22;8062;53.882;10.642;2023-11-21T03:15:35;6.10;99.90
15926;DHT22;8062;53.882;10.642;2023-11-21T03:16:55;6.00;99.90
15926;DHT22;8062;53.882;10.642;2023-11-21T03:18:15;6.00;99.90
15926;DHT22;8062;53.882;10.642;2023-11-21T03:19:35;6.00;99.90
15926;DHT22;8062;53.882;10.642;2023-11-21T03:20:54;6.00;99.90
15926;DHT22;8062;53.882;10.642;2023-11-21T03:22:14;6.00;99.90
15926;DHT22;8062;53.882;10.642;2023-11-21T03:23:34;6.00;99.90
15926;DHT22;8062;53.882;10.642;2023-11-21T03:24:54;6.00;99.90
15926;DHT22;8062;53.882;10.642;2023-11-21T03:26:15;6.00;99.90
15926;DHT22;8062;53.882;10.642;2023-11-21T03:27:34;6.00;99.90
15926;DHT22;8062;53.882;10.642;2023-11-21T03:28:54;6.00;99.90
15926;DHT22;8062;53.882;10.642;2023-11-21T03:30:13;6.10;99.90
15926;DHT22;8062;53.882;10.642;2023-11-21T03:31:33;6.00;99.90
15926;DHT22;8062;53.882;10.642;2023-11-21T03:32:52;6.00;99.90
15926;DHT22;8062;53.882;10.642;2023-11-21T03:34:22;6.00;99.90
15926;DHT22;8062;53.882;10.642;2023-11-21T03:35:42;6.10;99.90
15926;DHT22;8062;53.882;10.642;2023-11-21T03:37:03;6.10;99.90
15926;DHT22;8062;53.882;10.642;2023-11-21T03:38:23;6.10;99.90
15926;DHT22;8062;53.882;10.642;2023-11-21T03:39:43;6.00;99.90
15926;DHT22;8062;53.882;10.642;2023-11-21T03:41:04;6.00;99.90
15926;DHT22;8062;53.882;10.642;2023-11-21T03:42:24;6.10;99.90
15926;DHT22;8062;53.882;10.642;2023-11-21T03:43:46;6.00;99.90
15926;DHT22;8062;53.882;10.642;2023-11-21T03:45:08;6.10;99.90
15926;DHT22;8062;53.882;10.642;2023-11-21T03:46:28;6.00;99.90
15926;DHT22;8062;53.882;10.642;2023-11-21T03:47:48;6.00;99.90
15926;DHT22;8062;53.882;10.642;2023-11-21T03:49:07;6.00;99.90
15926;DHT22;8062;53.882;10.642;2023-11-21T03:50:29;6.00;99.90
15926;DHT22;8062;53.882;10.642;2023-11-21T03:51:48;6.00;99.90
15926;DHT22;8062;53.882;10.642;2023-11-21T03:53:08;6.00;99.90
15926;DHT22;8062;53.882;10.642;2023-11-21T03:54:28;6.00;99.90
15926;DHT22;8062;53.882;10.642;2023-11-21T03:55:47;5.90;99.90
15926;DHT22;8062;53.882;10.642;2023-11-21T03:57:07;6.00;99.90
15926;DHT22;8062;53.882;10.642;2023-11-21T03:58:26;6.00;99.90
15926;DHT22;8062;53.882;10.642;2023-11-21T03:59:46;6.00;99.90
15926;DHT22;8062;53.882;10.642;2023-11-21T04:01:06;6.00;99.90
15926;DHT22;8062;53.882;10.642;2023-11-21T04:02:25;6.00;99.90
15926;DHT22;8062;53.882;10.642;2023-11-21T04:03:45;6.00;99.90
15926;DHT22;8062;53.882;10.642;2023-11-21T04:05:05;6.00;99.90
15926;DHT22;8062;53.882;10.642;2023-11-21T04:06:26;6.00;99.90
15926;DHT22;8062;53.882;10.642;2023-11-21T04:07:46;6.00;99.90
15926;DHT22;8062;53.882;10.642;2023-11-21T04:09:05;6.10;99.90
15926;DHT22;8062;53.882;10.642;2023-11-21T04:10:25;6.10;99.90
15926;DHT22;8062;53.882;10.642;2023-11-21T04:11:45;6.00;99.90
15926;DHT22;8062;53.882;10.642;2023-11-21T04:13:05;6.00;99.90
15926;DHT22;8062;53.882;10.642;2023-11-21T04:14:26;6.00;99.90
15926;DHT22;8062;53.882;10.642;2023-11-21T04:15:45;6.00;99.90
15926;DHT22;8062;53.882;10.642;2023-11-21T04:17:04;6.00;99.90
15926;DHT22;8062;53.882;10.642;2023-11-21T04:18:24;6.00;99.90
15926;DHT22;8062;53.882;10.642;2023-11-21T04:19:43;6.00;99.90
15926;DHT22;8062;53.882;10.642;2023-11-21T04:21:07;6.10;99.90
15926;DHT22;8062;53.882;10.642;2023-11-21T04:22:27;6.10;99.90
15926;DHT22;8062;53.882;10.642;2023-11-21T04:23:46;6.00;99.90
15926;DHT22;8062;53.882;10.642;2023-11-21T04:25:10;6.10;99.90
15926;DHT22;8062;53.882;10.642;2023-11-21T04:26:33;6.00;99.90
15926;DHT22;8062;53.882;10.642;2023-11-21T04:27:53;6.10;99.90
15926;DHT22;8062;53.882;10.642;2023-11-21T04:29:12;6.10;99.90
15926;DHT22;8062;53.882;10.642;2023-11-21T04:30:32;6.10;99.90
15926;DHT22;8062;53.882;10.642;2023-11-21T04:31:52;6.10;99.90
15926;DHT22;8062;53.882;10.642;2023-11-21T04:33:11;6.00;99.90
15926;DHT22;8062;53.882;10.642;2023-11-21T04:34:30;6.00;99.90
15926;DHT22;8062;53.882;10.642;2023-11-21T04:35:50;6.00;99.90
15926;DHT22;8062;53.882;10.642;2023-11-21T04:37:10;6.00;99.90
15926;DHT22;8062;53.882;10.642;2023-11-21T04:38:30;6.00;99.90
15926;DHT22;8062;53.882;10.642;2023-11-21T04:39:49;6.00;99.90
15926;DHT22;8062;53.882;10.642;2023-11-21T04:41:09;6.00;99.90
15926;DHT22;8062;53.882;10.642;2023-11-21T04:42:28;6.00;99.90
15926;DHT22;8062;53.882;10.642;2023-11-21T04:43:48;6.00;99.90
15926;DHT22;8062;53.882;10.642;2023-11-21T04:45:08;6.00;99.90
15926;DHT22;8062;53.882;10.642;2023-11-21T04:46:28;6.00;99.90
15926;DHT22;8062;53.882;10.642;2023-11-21T04:47:48;5.90;99.90
15926;DHT22;8062;53.882;10.642;2023-11-21T04:49:07;5.80;99.90
15926;DHT22;8062;53.882;10.642;2023-11-21T04:50:27;5.80;99.90
15926;DHT22;8062;53.882;10.642;2023-11-21T04:51:47;5.80;99.90
15926;DHT22;8062;53.882;10.642;2023-11-21T04:53:06;5.90;99.90
15926;DHT22;8062;53.882;10.642;2023-11-21T04:54:26;5.90;99.90
15926;DHT22;8062;53.882;10.642;2023-11-21T04:55:45;5.90;99.90
15926;DHT22;8062;53.882;10.642;2023-11-21T04:57:06;5.90;99.90
15926;DHT22;8062;53.882;10.642;2023-11-21T04:58:26;5.90;99.90
15926;DHT22;8062;53.882;10.642;2023-11-21T04:59:46;5.90;99.90
15926;DHT22;8062;53.882;10.642;2023-11-21T05:01:07;5.90;99.90
15926;DHT22;8062;53.882;10.642;2023-11-21T05:02:27;5.90;99.90
15926;DHT22;8062;53.882;10.642;2023-11-21T05:03:46;5.90;99.90
15926;DHT22;8062;53.882;10.642;2023-11-21T05:05:07;5.90;99.90
15926;DHT22;8062;53.882;10.642;2023-11-21T05:06:26;5.90;99.90
15926;DHT22;8062;53.882;10.642;2023-11-21T05:07:46;5.80;99.90
15926;DHT22;8062;53.882;10.642;2023-11-21T05:09:05;5.80;99.90
15926;DHT22;8062;53.882;10.642;2023-11-21T05:10:25;5.80;99.90
15926;DHT22;8062;53.882;10.642;2023-11-21T05:11:44;5.80;99.90
15926;DHT22;8062;53.882;10.642;2023-11-21T05:13:04;5.80;99.90
15926;DHT22;8062;53.882;10.642;2023-11-21T05:14:23;5.80;99.90
15926;DHT22;8062;53.882;10.642;2023-11-21T05:15:43;5.80;99.90
15926;DHT22;8062;53.882;10.642;2023-11-21T05:17:03;5.80;99.90
15926;DHT22;8062;53.882;10.642;2023-11-21T05:18:23;5.90;99.90
15926;DHT22;8062;53.882;10.642;2023-11-21T05:19:46;5.90;99.90
15926;DHT22;8062;53.882;10.642;2023-11-21T05:21:07;5.90;99.90
15926;DHT22;8062;53.882;10.642;2023-11-21T05:22:27;5.80;99.90
15926;DHT22;8062;53.882;10.642;2023-11-21T05:23:46;5.80;99.90
15926;DHT22;8062;53.882;10.642;2023-11-21T05:25:07;5.80;99.90
15926;DHT22;8062;53.882;10.642;2023-11-21T05:26:27;5.90;99.90
15926;DHT22;8062;53.882;10.642;2023-11-21T05:27:47;5.90;99.90
15926;DHT22;8062;53.882;10.642;2023-11-21T05:29:07;5.80;99.90
15926;DHT22;8062;53.882;10.642;2023-11-21T05:30:28;5.80;99.90
15926;DHT22;8062;53.882;10.642;2023-11-21T05:31:47;5.80;99.90
15926;DHT22;8062;53.882;10.642;2023-11-21T05:33:07;5.80;99.90
15926;DHT22;8062;53.882;10.642;2023-11-21T05:34:26;5.80;99.90
15926;DHT22;8062;53.882;10.642;2023-11-21T05:35:45;5.90;99.90
15926;DHT22;8062;53.882;10.642;2023-11-21T05:37:05;5.90;99.90
15926;DHT22;8062;53.882;10.642;2023-11-21T05:38:25;5.90;99.90
15926;DHT22;8062;53.882;10.642;2023-11-21T05:39:45;5.90;99.90
15926;DHT22;8062;53.882;10.642;2023-11-21T05:41:04;5.80;99.90
15926;DHT22;8062;53.882;10.642;2023-11-21T05:42:24;5.80;99.90
15926;DHT22;8062;53.882;10.642;2023-11-21T05:43:44;5.90;99.90
15926;DHT22;8062;53.882;10.642;2023-11-21T05:45:03;5.90;99.90
15926;DHT22;8062;53.882;10.642;2023-11-21T05:46:29;5.90;99.90
15926;DHT22;8062;53.882;10.642;2023-11-21T05:47:49;5.90;99.90
15926;DHT22;8062;53.882;10.642;2023-11-21T05:49:09;5.90;99.90
15926;DHT22;8062;53.882;10.642;2023-11-21T05:50:29;5.80;99.90
15926;DHT22;8062;53.882;10.642;2023-11-21T05:51:50;5.90;99.90
15926;DHT22;8062;53.882;10.642;2023-11-21T05:53:09;5.80;99.90
15926;DHT22;8062;53.882;10.642;2023-11-21T05:54:31;5.90;99.90
15926;DHT22;8062;53.882;10.642;2023-11-21T05:55:51;5.90;99.90
15926;DHT22;8062;53.882;10.642;2023-11-21T05:57:10;5.90;99.90
15926;DHT22;8062;53.882;10.642;2023-11-21T05:58:31;5.90;99.90
15926;DHT22;8062;53.882;10.642;2023-11-21T05:59:50;5.80;99.90
15926;DHT22;8062;53.882;10.642;2023-11-21T06:01:10;5.80;99.90
15926;DHT22;8062;53.882;10.642;2023-11-21T06:02:32;5.80;99.90
15926;DHT22;8062;53.882;10.642;2023-11-21T06:03:51;5.80;99.90
15926;DHT22;8062;53.882;10.642;2023-11-21T06:05:11;5.80;99.90
15926;DHT22;8062;53.882;10.642;2023-11-21T06:06:31;5.80;99.90
15926;DHT22;8062;53.882;10.642;2023-11-21T06:07:52;5.80;99.90
15926;DHT22;8062;53.882;10.642;2023-11-21T06:09:12;5.80;99.90
15926;DHT22;8062;53.882;10.642;2023-11-21T06:10:32;5.80;99.90
15926;DHT22;8062;53.882;10.642;2023-11-21T06:11:51;5.80;99.90
15926;DHT22;8062;53.882;10.642;2023-11-21T06:13:11;5.80;99.90
15926;DHT22;8062;53.882;10.642;2023-11-21T06:14:31;5.90;99.90
15926;DHT22;8062;53.882;10.642;2023-11-21T06:15:52;5.90;99.90
15926;DHT22;8062;53.882;10.642;2023-11-21T06:17:11;5.80;99.90
15926;DHT22;8062;53.882;10.642;2023-11-21T06:18:32;5.80;99.90
15926;DHT22;8062;53.882;10.642;2023-11-21T06:19:52;5.90;99.90
15926;DHT22;8062;53.882;10.642;2023-11-21T06:21:12;5.90;99.90
15926;DHT22;8062;53.882;10.642;2023-11-21T06:22:32;5.90;99.90
15926;DHT22;8062;53.882;10.642;2023-11-21T06:23:52;5.90;99.90
15926;DHT22;8062;53.882;10.642;2023-11-21T06:25:13;5.90;99.90
15926;DHT22;8062;53.882;10.642;2023-11-21T06:26:32;5.80;99.90
15926;DHT22;8062;53.882;10.642;2023-11-21T06:27:52;5.80;99.90
15926;DHT22;8062;53.882;10.642;2023-11-21T06:29:13;5.80;99.90
15926;DHT22;8062;53.882;10.642;2023-11-21T06:30:32;5.80;99.90
15926;DHT22;8062;53.882;10.642;2023-11-21T06:31:52;5.90;99.90
15926;DHT22;8062;53.882;10.642;2023-11-21T06:33:14;5.90;99.90
15926;DHT22;8062;53.882;10.642;2023-11-21T06:34:33;5.90;99.90
15926;DHT22;8062;53.882;10.642;2023-11-21T06:35:53;5.90;99.90
15926;DHT22;8062;53.882;10.642;2023-11-21T06:37:12;5.90;99.90
15926;DHT22;8062;53.882;10.642;2023-11-21T06:38:32;5.80;99.90
15926;DHT22;8062;53.882;10.642;2023-11-21T06:39:51;5.80;99.90
15926;DHT22;8062;53.882;10.642;2023-11-21T06:41:11;5.80;99.90
15926;DHT22;8062;53.882;10.642;2023-11-21T06:42:34;5.80;99.90
15926;DHT22;8062;53.882;10.642;2023-11-21T06:43:54;5.80;99.90
15926;DHT22;8062;53.882;10.642;2023-11-21T06:45:13;5.80;99.90
15926;DHT22;8062;53.882;10.642;2023-11-21T06:46:34;5.80;99.90
15926;DHT22;8062;53.882;10.642;2023-11-21T06:47:53;5.90;99.90
15926;DHT22;8062;53.882;10.642;2023-11-21T06:49:13;5.90;99.90
15926;DHT22;8062;53.882;10.642;2023-11-21T06:50:32;5.80;99.90
15926;DHT22;8062;53.882;10.642;2023-11-21T06:51:52;5.80;99.90
15926;DHT22;8062;53.882;10.642;2023-11-21T06:53:14;5.80;99.90
15926;DHT22;8062;53.882;10.642;2023-11-21T06:54:34;5.80;99.90
15926;DHT22;8062;53.882;10.642;2023-11-21T06:55:53;5.80;99.90
15926;DHT22;8062;53.882;10.642;2023-11-21T06:57:13;5.80;99.90
15926;DHT22;8062;53.882;10.642;2023-11-21T06:58:33;5.80;99.90
15926;DHT22;8062;53.882;10.642;2023-11-21T06:59:53;5.80;99.90
15926;DHT22;8062;53.882;10.642;2023-11-21T07:01:13;5.80;99.90
15926;DHT22;8062;53.882;10.642;2023-11-21T07:02:33;5.80;99.90
15926;DHT22;8062;53.882;10.642;2023-11-21T07:03:52;5.80;99.90
15926;DHT22;8062;53.882;10.642;2023-11-21T07:05:12;5.80;99.90
15926;DHT22;8062;53.882;10.642;2023-11-21T07:06:33;5.80;99.90
15926;DHT22;8062;53.882;10.642;2023-11-21T07:07:53;5.80;99.90
15926;DHT22;8062;53.882;10.642;2023-11-21T07:09:13;5.80;99.90
15926;DHT22;8062;53.882;10.642;2023-11-21T07:10:33;5.80;99.90
15926;DHT22;8062;53.882;10.642;2023-11-21T07:11:52;5.90;99.90
15926;DHT22;8062;53.882;10.642;2023-11-21T07:13:12;5.90;99.90
15926;DHT22;8062;53.882;10.642;2023-11-21T07:14:32;5.90;99.90
15926;DHT22;8062;53.882;10.642;2023-11-21T07:15:51;6.00;99.90
15926;DHT22;8062;53.882;10.642;2023-11-21T07:17:11;6.00;99.90
15926;DHT22;8062;53.882;10.642;2023-11-21T07:18:31;6.00;99.90
15926;DHT22;8062;53.882;10.642;2023-11-21T07:19:51;6.00;99.90
15926;DHT22;8062;53.882;10.642;2023-11-21T07:21:10;6.00;99.90
15926;DHT22;8062;53.882;10.642;2023-11-21T07:22:31;6.00;99.90
15926;DHT22;8062;53.882;10.642;2023-11-21T07:23:51;6.00;99.90
15926;DHT22;8062;53.882;10.642;2023-11-21T07:25:11;6.00;99.90
15926;DHT22;8062;53.882;10.642;2023-11-21T07:26:31;6.00;99.90
15926;DHT22;8062;53.882;10.642;2023-11-21T07:27:51;6.10;99.90
15926;DHT22;8062;53.882;10.642;2023-11-21T07:29:10;6.10;99.90
15926;DHT22;8062;53.882;10.642;2023-11-21T07:30:31;6.10;99.90
15926;DHT22;8062;53.882;10.642;2023-11-21T07:31:50;6.10;99.90
15926;DHT22;8062;53.882;10.642;2023-11-21T07:33:10;6.10;99.90
15926;DHT22;8062;53.882;10.642;2023-11-21T07:34:30;6.10;99.90
15926;DHT22;8062;53.882;10.642;2023-11-21T07:35:49;6.20;99.90
15926;DHT22;8062;53.882;10.642;2023-11-21T07:37:09;6.20;99.90
15926;DHT22;8062;53.882;10.642;2023-11-21T07:38:28;6.10;99.90
15926;DHT22;8062;53.882;10.642;2023-11-21T07:39:48;6.10;99.90
15926;DHT22;8062;53.882;10.642;2023-11-21T07:41:08;6.10;99.90
15926;DHT22;8062;53.882;10.642;2023-11-21T07:42:28;6.10;99.90
15926;DHT22;8062;53.882;10.642;2023-11-21T07:43:48;6.10;99.90
15926;DHT22;8062;53.882;10.642;2023-11-21T07:45:07;6.10;99.90
15926;DHT22;8062;53.882;10.642;2023-11-21T07:46:28;6.10;99.90
15926;DHT22;8062;53.882;10.642;2023-11-21T07:47:48;6.20;99.90
15926;DHT22;8062;53.882;10.642;2023-11-21T07:49:07;6.20;99.90
15926;DHT22;8062;53.882;10.642;2023-11-21T07:50:27;6.20;99.90
15926;DHT22;8062;53.882;10.642;2023-11-21T07:51:47;6.10;99.90
15926;DHT22;8062;53.882;10.642;2023-11-21T07:53:07;6.20;99.90
15926;DHT22;8062;53.882;10.642;2023-11-21T07:54:26;6.10;99.90
15926;DHT22;8062;53.882;10.642;2023-11-21T07:55:47;6.20;99.90
15926;DHT22;8062;53.882;10.642;2023-11-21T07:57:07;6.10;99.90
15926;DHT22;8062;53.882;10.642;2023-11-21T07:58:26;6.10;99.90
15926;DHT22;8062;53.882;10.642;2023-11-21T07:59:46;6.10;99.90
15926;DHT22;8062;53.882;10.642;2023-11-21T08:01:05;6.10;99.90
15926;DHT22;8062;53.882;10.642;2023-11-21T08:02:26;6.10;99.90
15926;DHT22;8062;53.882;10.642;2023-11-21T08:03:46;6.10;99.90
15926;DHT22;8062;53.882;10.642;2023-11-21T08:05:10;6.10;99.90
15926;DHT22;8062;53.882;10.642;2023-11-21T08:06:30;6.00;99.90
15926;DHT22;8062;53.882;10.642;2023-11-21T08:07:50;6.00;99.90
15926;DHT22;8062;53.882;10.642;2023-11-21T08:09:09;6.00;99.90
15926;DHT22;8062;53.882;10.642;2023-11-21T08:10:31;6.00;99.90
15926;DHT22;8062;53.882;10.642;2023-11-21T08:11:51;6.00;99.90
15926;DHT22;8062;53.882;10.642;2023-11-21T08:13:12;5.90;99.90
15926;DHT22;8062;53.882;10.642;2023-11-21T08:14:34;5.90;99.90
15926;DHT22;8062;53.882;10.642;2023-11-21T08:15:58;5.90;99.90
15926;DHT22;8062;53.882;10.642;2023-11-21T08:17:22;5.90;99.90
15926;DHT22;8062;53.882;10.642;2023-11-21T08:18:42;5.90;99.90
15926;DHT22;8062;53.882;10.642;2023-11-21T08:20:02;5.90;99.90
15926;DHT22;8062;53.882;10.642;2023-11-21T08:21:22;5.90;99.90
15926;DHT22;8062;53.882;10.642;2023-11-21T08:22:48;5.80;99.90
15926;DHT22;8062;53.882;10.642;2023-11-21T08:24:08;5.80;99.90
15926;DHT22;8062;53.882;10.642;2023-11-21T08:25:29;5.80;99.90
15926;DHT22;8062;53.882;10.642;2023-11-21T08:26:49;5.80;99.90
15926;DHT22;8062;53.882;10.642;2023-11-21T08:28:10;5.80;99.90
15926;DHT22;8062;53.882;10.642;2023-11-21T08:29:30;5.80;99.90
15926;DHT22;8062;53.882;10.642;2023-11-21T08:30:53;5.80;99.90
15926;DHT22;8062;53.882;10.642;2023-11-21T08:32:16;5.80;99.90
15926;DHT22;8062;53.882;10.642;2023-11-21T08:33:35;5.80;99.90